sensor_id;sensor_type;location;lat;lon;timestamp;P1;durP1;ratioP1;P2;durP2;ratioP2
54871;SDS011;43914;57.680;11.982;2022-11-20T00:01:14;5.35;;;1.80;;
54871;SDS011;43914;57.680;11.982;2022-11-20T00:03:43;4.70;;;1.60;;
54871;SDS011;43914;57.680;11.982;2022-11-20T00:06:16;5.05;;;1.80;;
54871;SDS011;43914;57.680;11.982;2022-11-20T00:08:44;5.78;;;1.90;;
54871;SDS011;43914;57.680;11.982;2022-11-20T00:11:11;5.17;;;1.90;;
54871;SDS011;43914;57.680;11.982;2022-11-20T00:13:52;5.17;;;1.80;;
54871;SDS011;43914;57.680;11.982;2022-11-20T00:16:18;5.30;;;1.90;;
54871;SDS011;43914;57.680;11.982;2022-11-20T00:18:47;6.17;;;1.70;;
54871;SDS011;43914;57.680;11.982;2022-11-20T00:21:17;4.55;;;1.70;;
54871;SDS011;43914;57.680;11.982;2022-11-20T00:23:46;5.75;;;1.85;;
54871;SDS011;43914;57.680;11.982;2022-11-20T00:26:15;5.53;;;2.00;;
54871;SDS011;43914;57.680;11.982;2022-11-20T00:28:43;7.85;;;2.10;;
54871;SDS011;43914;57.680;11.982;2022-11-20T00:31:16;5.08;;;1.82;;
54871;SDS011;43914;57.680;11.982;2022-11-20T00:33:42;5.70;;;1.85;;
54871;SDS011;43914;57.680;11.982;2022-11-20T00:36:10;5.55;;;1.90;;
54871;SDS011;43914;57.680;11.982;2022-11-20T00:38:39;5.50;;;1.75;;
54871;SDS011;43914;57.680;11.982;2022-11-20T00:41:07;8.40;;;2.00;;
54871;SDS011;43914;57.680;11.982;2022-11-20T00:43:35;4.53;;;1.60;;
54871;SDS011;43914;57.680;11.982;2022-11-20T00:46:08;4.92;;;1.60;;
54871;SDS011;43914;57.680;11.982;2022-11-20T00:48:33;6.00;;;1.80;;
54871;SDS011;43914;57.680;11.982;2022-11-20T00:50:59;4.05;;;1.35;;
54871;SDS011;43914;57.680;11.982;2022-11-20T00:53:26;4.15;;;1.32;;
54871;SDS011;43914;57.680;11.982;2022-11-20T00:55:56;4.85;;;1.52;;
54871;SDS011;43914;57.680;11.982;2022-11-20T00:58:34;4.53;;;1.50;;
54871;SDS011;43914;57.680;11.982;2022-11-20T01:03:39;5.17;;;1.80;;
54871;SDS011;43914;57.680;11.982;2022-11-20T01:06:15;4.60;;;1.55;;
54871;SDS011;43914;57.680;11.982;2022-11-20T01:08:45;4.00;;;1.40;;
54871;SDS011;43914;57.680;11.982;2022-11-20T01:11:19;5.70;;;1.77;;
54871;SDS011;43914;57.680;11.982;2022-11-20T01:13:48;4.22;;;1.65;;
54871;SDS011;43914;57.680;11.982;2022-11-20T01:16:17;4.55;;;1.52;;
54871;SDS011;43914;57.680;11.982;2022-11-20T01:18:48;4.70;;;1.70;;
54871;SDS011;43914;57.680;11.982;2022-11-20T01:21:19;6.40;;;1.60;;
54871;SDS011;43914;57.680;11.982;2022-11-20T01:23:51;5.00;;;1.70;;
54871;SDS011;43914;57.680;11.982;2022-11-20T01:26:18;5.30;;;1.80;;
54871;SDS011;43914;57.680;11.982;2022-11-20T01:28:49;5.03;;;1.60;;
54871;SDS011;43914;57.680;11.982;2022-11-20T01:33:46;4.78;;;1.72;;
54871;SDS011;43914;57.680;11.982;2022-11-20T01:36:16;5.10;;;1.60;;
54871;SDS011;43914;57.680;11.982;2022-11-20T01:38:44;6.45;;;1.90;;
54871;SDS011;43914;57.680;11.982;2022-11-20T01:41:11;4.58;;;1.50;;
54871;SDS011;43914;57.680;11.982;2022-11-20T01:43:57;5.97;;;1.80;;
54871;SDS011;43914;57.680;11.982;2022-11-20T01:46:24;6.65;;;1.47;;
54871;SDS011;43914;57.680;11.982;2022-11-20T01:48:52;4.78;;;1.65;;
54871;SDS011;43914;57.680;11.982;2022-11-20T01:51:29;4.58;;;1.77;;
54871;SDS011;43914;57.680;11.982;2022-11-20T01:53:59;4.95;;;1.57;;
54871;SDS011;43914;57.680;11.982;2022-11-20T01:56:29;5.53;;;1.70;;
54871;SDS011;43914;57.680;11.982;2022-11-20T01:58:59;5.12;;;1.60;;
54871;SDS011;43914;57.680;11.982;2022-11-20T02:01:30;6.10;;;1.70;;
54871;SDS011;43914;57.680;11.982;2022-11-20T02:03:56;4.70;;;1.77;;
54871;SDS011;43914;57.680;11.982;2022-11-20T02:06:28;5.58;;;1.50;;
54871;SDS011;43914;57.680;11.982;2022-11-20T02:08:58;5.05;;;1.75;;
54871;SDS011;43914;57.680;11.982;2022-11-20T02:11:24;6.10;;;1.80;;
54871;SDS011;43914;57.680;11.982;2022-11-20T02:13:50;5.20;;;1.90;;
54871;SDS011;43914;57.680;11.982;2022-11-20T02:16:24;6.05;;;2.02;;
54871;SDS011;43914;57.680;11.982;2022-11-20T02:18:54;6.75;;;2.00;;
54871;SDS011;43914;57.680;11.982;2022-11-20T02:34:56;5.42;;;1.77;;
54871;SDS011;43914;57.680;11.982;2022-11-20T02:37:23;5.80;;;2.00;;
54871;SDS011;43914;57.680;11.982;2022-11-20T02:39:54;4.75;;;1.90;;
54871;SDS011;43914;57.680;11.982;2022-11-20T02:42:20;6.30;;;1.80;;
54871;SDS011;43914;57.680;11.982;2022-11-20T02:44:47;5.15;;;1.70;;
54871;SDS011;43914;57.680;11.982;2022-11-20T02:47:13;5.83;;;2.10;;
54871;SDS011;43914;57.680;11.982;2022-11-20T02:49:39;5.40;;;1.90;;
54871;SDS011;43914;57.680;11.982;2022-11-20T02:52:07;4.95;;;1.67;;
54871;SDS011;43914;57.680;11.982;2022-11-20T02:54:32;5.00;;;1.83;;
54871;SDS011;43914;57.680;11.982;2022-11-20T02:56:58;5.03;;;1.70;;
54871;SDS011;43914;57.680;11.982;2022-11-20T02:59:24;6.00;;;1.90;;
54871;SDS011;43914;57.680;11.982;2022-11-20T03:01:50;6.43;;;2.00;;
54871;SDS011;43914;57.680;11.982;2022-11-20T03:04:16;4.73;;;1.70;;
54871;SDS011;43914;57.680;11.982;2022-11-20T03:06:42;4.85;;;1.82;;
54871;SDS011;43914;57.680;11.982;2022-11-20T03:09:08;6.73;;;2.30;;
54871;SDS011;43914;57.680;11.982;2022-11-20T03:11:34;5.97;;;2.10;;
54871;SDS011;43914;57.680;11.982;2022-11-20T03:14:04;5.10;;;1.80;;
54871;SDS011;43914;57.680;11.982;2022-11-20T03:16:31;5.30;;;1.90;;
54871;SDS011;43914;57.680;11.982;2022-11-20T03:18:58;5.95;;;2.22;;
54871;SDS011;43914;57.680;11.982;2022-11-20T03:21:25;5.95;;;1.98;;
54871;SDS011;43914;57.680;11.982;2022-11-20T03:23:52;6.08;;;1.85;;
54871;SDS011;43914;57.680;11.982;2022-11-20T03:26:21;4.40;;;1.77;;
54871;SDS011;43914;57.680;11.982;2022-11-20T03:29:00;6.70;;;2.37;;
54871;SDS011;43914;57.680;11.982;2022-11-20T03:31:29;5.95;;;2.00;;
54871;SDS011;43914;57.680;11.982;2022-11-20T03:33:58;6.17;;;2.02;;
54871;SDS011;43914;57.680;11.982;2022-11-20T03:36:25;6.67;;;2.10;;
54871;SDS011;43914;57.680;11.982;2022-11-20T03:38:53;6.17;;;2.15;;
54871;SDS011;43914;57.680;11.982;2022-11-20T03:41:21;5.45;;;1.98;;
54871;SDS011;43914;57.680;11.982;2022-11-20T03:46:26;5.80;;;2.30;;
54871;SDS011;43914;57.680;11.982;2022-11-20T03:48:53;5.90;;;1.92;;
54871;SDS011;43914;57.680;11.982;2022-11-20T03:54:00;5.62;;;1.95;;
54871;SDS011;43914;57.680;11.982;2022-11-20T03:56:29;7.00;;;2.15;;
54871;SDS011;43914;57.680;11.982;2022-11-20T03:58:57;5.62;;;2.22;;
54871;SDS011;43914;57.680;11.982;2022-11-20T04:01:29;6.28;;;2.00;;
54871;SDS011;43914;57.680;11.982;2022-11-20T04:03:54;6.08;;;2.25;;
54871;SDS011;43914;57.680;11.982;2022-11-20T04:06:29;5.15;;;2.00;;
54871;SDS011;43914;57.680;11.982;2022-11-20T04:09:01;5.55;;;2.05;;
54871;SDS011;43914;57.680;11.982;2022-11-20T04:11:28;7.85;;;2.37;;
54871;SDS011;43914;57.680;11.982;2022-11-20T04:13:57;5.67;;;2.10;;
54871;SDS011;43914;57.680;11.982;2022-11-20T04:16:29;6.17;;;2.33;;
54871;SDS011;43914;57.680;11.982;2022-11-20T04:19:00;6.05;;;2.25;;
54871;SDS011;43914;57.680;11.982;2022-11-20T04:21:28;5.70;;;1.80;;
54871;SDS011;43914;57.680;11.982;2022-11-20T04:23:54;5.55;;;2.20;;
54871;SDS011;43914;57.680;11.982;2022-11-20T04:26:21;5.78;;;2.30;;
54871;SDS011;43914;57.680;11.982;2022-11-20T04:28:50;5.85;;;2.22;;
54871;SDS011;43914;57.680;11.982;2022-11-20T04:31:17;7.30;;;2.37;;
54871;SDS011;43914;57.680;11.982;2022-11-20T04:33:49;5.72;;;2.25;;
54871;SDS011;43914;57.680;11.982;2022-11-20T04:36:16;6.55;;;2.70;;
54871;SDS011;43914;57.680;11.982;2022-11-20T04:38:56;8.08;;;2.98;;
54871;SDS011;43914;57.680;11.982;2022-11-20T04:41:21;5.72;;;2.27;;
54871;SDS011;43914;57.680;11.982;2022-11-20T04:43:50;6.67;;;2.40;;
54871;SDS011;43914;57.680;11.982;2022-11-20T04:46:21;7.80;;;2.30;;
54871;SDS011;43914;57.680;11.982;2022-11-20T04:48:49;6.10;;;2.22;;
54871;SDS011;43914;57.680;11.982;2022-11-20T04:51:14;5.97;;;2.33;;
54871;SDS011;43914;57.680;11.982;2022-11-20T04:53:41;6.25;;;2.40;;
54871;SDS011;43914;57.680;11.982;2022-11-20T04:56:07;6.00;;;2.30;;
54871;SDS011;43914;57.680;11.982;2022-11-20T04:58:35;6.87;;;2.52;;
54871;SDS011;43914;57.680;11.982;2022-11-20T05:01:06;6.40;;;2.10;;
54871;SDS011;43914;57.680;11.982;2022-11-20T05:03:35;5.85;;;2.25;;
54871;SDS011;43914;57.680;11.982;2022-11-20T05:06:05;6.17;;;2.50;;
54871;SDS011;43914;57.680;11.982;2022-11-20T05:08:32;6.58;;;2.30;;
54871;SDS011;43914;57.680;11.982;2022-11-20T05:11:05;6.30;;;2.30;;
54871;SDS011;43914;57.680;11.982;2022-11-20T05:13:35;6.37;;;2.42;;
54871;SDS011;43914;57.680;11.982;2022-11-20T05:16:02;6.30;;;2.30;;
54871;SDS011;43914;57.680;11.982;2022-11-20T05:18:32;6.40;;;2.47;;
54871;SDS011;43914;57.680;11.982;2022-11-20T05:20:59;6.92;;;2.40;;
54871;SDS011;43914;57.680;11.982;2022-11-20T05:23:26;6.80;;;2.25;;
54871;SDS011;43914;57.680;11.982;2022-11-20T05:25:54;6.30;;;2.37;;
54871;SDS011;43914;57.680;11.982;2022-11-20T05:28:22;6.95;;;2.37;;
54871;SDS011;43914;57.680;11.982;2022-11-20T05:30:49;8.70;;;2.33;;
54871;SDS011;43914;57.680;11.982;2022-11-20T05:33:16;6.05;;;2.27;;
54871;SDS011;43914;57.680;11.982;2022-11-20T05:35:43;7.08;;;2.30;;
54871;SDS011;43914;57.680;11.982;2022-11-20T05:38:09;8.23;;;2.72;;
54871;SDS011;43914;57.680;11.982;2022-11-20T05:40:37;5.60;;;1.95;;
54871;SDS011;43914;57.680;11.982;2022-11-20T05:43:03;6.30;;;2.60;;
54871;SDS011;43914;57.680;11.982;2022-11-20T05:45:29;6.30;;;2.40;;
54871;SDS011;43914;57.680;11.982;2022-11-20T05:47:57;6.50;;;2.20;;
54871;SDS011;43914;57.680;11.982;2022-11-20T05:50:25;6.90;;;2.77;;
54871;SDS011;43914;57.680;11.982;2022-11-20T05:52:53;6.15;;;2.40;;
54871;SDS011;43914;57.680;11.982;2022-11-20T05:55:19;6.03;;;2.37;;
54871;SDS011;43914;57.680;11.982;2022-11-20T05:57:48;6.30;;;2.40;;
54871;SDS011;43914;57.680;11.982;2022-11-20T06:00:14;6.30;;;2.30;;
54871;SDS011;43914;57.680;11.982;2022-11-20T06:02:41;6.62;;;2.47;;
54871;SDS011;43914;57.680;11.982;2022-11-20T06:05:07;5.37;;;2.00;;
54871;SDS011;43914;57.680;11.982;2022-11-20T06:07:33;6.28;;;2.20;;
54871;SDS011;43914;57.680;11.982;2022-11-20T06:10:03;6.30;;;2.17;;
54871;SDS011;43914;57.680;11.982;2022-11-20T06:12:30;5.58;;;2.10;;
54871;SDS011;43914;57.680;11.982;2022-11-20T06:14:58;6.58;;;2.30;;
54871;SDS011;43914;57.680;11.982;2022-11-20T06:17:25;6.45;;;2.22;;
54871;SDS011;43914;57.680;11.982;2022-11-20T06:19:51;6.25;;;2.25;;
54871;SDS011;43914;57.680;11.982;2022-11-20T06:22:17;6.70;;;2.37;;
54871;SDS011;43914;57.680;11.982;2022-11-20T06:24:43;7.30;;;2.20;;
54871;SDS011;43914;57.680;11.982;2022-11-20T06:27:09;6.75;;;2.52;;
54871;SDS011;43914;57.680;11.982;2022-11-20T06:29:35;6.43;;;2.17;;
54871;SDS011;43914;57.680;11.982;2022-11-20T06:32:01;6.50;;;2.40;;
54871;SDS011;43914;57.680;11.982;2022-11-20T06:34:27;6.17;;;2.10;;
54871;SDS011;43914;57.680;11.982;2022-11-20T06:36:53;5.55;;;2.08;;
54871;SDS011;43914;57.680;11.982;2022-11-20T06:39:19;5.70;;;2.10;;
54871;SDS011;43914;57.680;11.982;2022-11-20T06:41:45;7.07;;;2.10;;
54871;SDS011;43914;57.680;11.982;2022-11-20T06:44:11;6.43;;;2.43;;
54871;SDS011;43914;57.680;11.982;2022-11-20T06:46:37;6.85;;;2.10;;
54871;SDS011;43914;57.680;11.982;2022-11-20T06:49:03;6.00;;;2.07;;
54871;SDS011;43914;57.680;11.982;2022-11-20T06:51:29;8.25;;;2.33;;
54871;SDS011;43914;57.680;11.982;2022-11-20T06:53:55;7.05;;;2.30;;
54871;SDS011;43914;57.680;11.982;2022-11-20T06:56:21;7.93;;;2.23;;
54871;SDS011;43914;57.680;11.982;2022-11-20T06:58:47;6.40;;;2.33;;
54871;SDS011;43914;57.680;11.982;2022-11-20T07:01:14;6.37;;;2.50;;
54871;SDS011;43914;57.680;11.982;2022-11-20T07:03:41;9.05;;;2.60;;
54871;SDS011;43914;57.680;11.982;2022-11-20T07:06:08;7.12;;;2.40;;
54871;SDS011;43914;57.680;11.982;2022-11-20T07:08:34;5.62;;;2.15;;
54871;SDS011;43914;57.680;11.982;2022-11-20T07:11:02;6.72;;;2.42;;
54871;SDS011;43914;57.680;11.982;2022-11-20T07:13:31;6.35;;;2.40;;
54871;SDS011;43914;57.680;11.982;2022-11-20T07:16:03;5.55;;;2.17;;
54871;SDS011;43914;57.680;11.982;2022-11-20T07:18:32;6.42;;;2.60;;
54871;SDS011;43914;57.680;11.982;2022-11-20T07:21:02;6.92;;;2.72;;
54871;SDS011;43914;57.680;11.982;2022-11-20T07:23:31;9.23;;;3.42;;
54871;SDS011;43914;57.680;11.982;2022-11-20T07:25:57;8.13;;;2.77;;
54871;SDS011;43914;57.680;11.982;2022-11-20T07:28:23;8.28;;;2.83;;
54871;SDS011;43914;57.680;11.982;2022-11-20T07:30:54;7.22;;;3.08;;
54871;SDS011;43914;57.680;11.982;2022-11-20T07:33:18;7.37;;;2.80;;
54871;SDS011;43914;57.680;11.982;2022-11-20T07:35:45;6.92;;;2.77;;
54871;SDS011;43914;57.680;11.982;2022-11-20T07:38:11;6.53;;;2.60;;
54871;SDS011;43914;57.680;11.982;2022-11-20T07:40:39;8.03;;;2.80;;
54871;SDS011;43914;57.680;11.982;2022-11-20T07:43:05;6.55;;;2.50;;
54871;SDS011;43914;57.680;11.982;2022-11-20T07:45:31;7.50;;;2.50;;
54871;SDS011;43914;57.680;11.982;2022-11-20T07:47:57;6.17;;;2.03;;
54871;SDS011;43914;57.680;11.982;2022-11-20T07:50:23;6.10;;;2.05;;
54871;SDS011;43914;57.680;11.982;2022-11-20T07:52:49;6.70;;;2.62;;
54871;SDS011;43914;57.680;11.982;2022-11-20T07:55:15;6.83;;;2.25;;
54871;SDS011;43914;57.680;11.982;2022-11-20T07:57:42;5.50;;;2.10;;
54871;SDS011;43914;57.680;11.982;2022-11-20T08:00:09;7.77;;;2.03;;
54871;SDS011;43914;57.680;11.982;2022-11-20T08:02:37;7.05;;;2.30;;
54871;SDS011;43914;57.680;11.982;2022-11-20T08:05:04;6.00;;;2.08;;
54871;SDS011;43914;57.680;11.982;2022-11-20T08:07:40;6.37;;;2.40;;
54871;SDS011;43914;57.680;11.982;2022-11-20T08:10:08;6.45;;;2.10;;
54871;SDS011;43914;57.680;11.982;2022-11-20T08:12:44;7.95;;;2.35;;
54871;SDS011;43914;57.680;11.982;2022-11-20T08:15:30;8.20;;;2.22;;
54871;SDS011;43914;57.680;11.982;2022-11-20T08:18:05;6.65;;;2.37;;
54871;SDS011;43914;57.680;11.982;2022-11-20T08:20:30;5.63;;;2.13;;
54871;SDS011;43914;57.680;11.982;2022-11-20T08:22:57;5.37;;;2.00;;
54871;SDS011;43914;57.680;11.982;2022-11-20T08:25:26;5.78;;;1.90;;
54871;SDS011;43914;57.680;11.982;2022-11-20T08:27:53;6.15;;;2.00;;
54871;SDS011;43914;57.680;11.982;2022-11-20T08:30:19;6.43;;;2.07;;
54871;SDS011;43914;57.680;11.982;2022-11-20T08:32:45;5.42;;;1.90;;
54871;SDS011;43914;57.680;11.982;2022-11-20T08:35:11;4.97;;;1.83;;
54871;SDS011;43914;57.680;11.982;2022-11-20T08:37:38;6.17;;;1.92;;
54871;SDS011;43914;57.680;11.982;2022-11-20T08:40:06;5.22;;;1.92;;
54871;SDS011;43914;57.680;11.982;2022-11-20T08:42:35;5.70;;;2.10;;
54871;SDS011;43914;57.680;11.982;2022-11-20T08:45:01;5.00;;;1.80;;
54871;SDS011;43914;57.680;11.982;2022-11-20T08:47:29;5.55;;;1.80;;
54871;SDS011;43914;57.680;11.982;2022-11-20T08:49:55;6.28;;;2.00;;
54871;SDS011;43914;57.680;11.982;2022-11-20T08:52:21;5.50;;;1.87;;
54871;SDS011;43914;57.680;11.982;2022-11-20T08:54:47;8.00;;;2.03;;
54871;SDS011;43914;57.680;11.982;2022-11-20T08:57:13;5.40;;;1.90;;
54871;SDS011;43914;57.680;11.982;2022-11-20T08:59:39;5.17;;;1.70;;
54871;SDS011;43914;57.680;11.982;2022-11-20T09:02:05;4.70;;;1.53;;
54871;SDS011;43914;57.680;11.982;2022-11-20T09:04:31;4.03;;;1.57;;
54871;SDS011;43914;57.680;11.982;2022-11-20T09:06:56;4.70;;;1.57;;
54871;SDS011;43914;57.680;11.982;2022-11-20T09:09:25;4.65;;;1.67;;
54871;SDS011;43914;57.680;11.982;2022-11-20T09:11:51;5.67;;;1.50;;
54871;SDS011;43914;57.680;11.982;2022-11-20T09:14:17;5.85;;;1.80;;
54871;SDS011;43914;57.680;11.982;2022-11-20T09:16:49;4.77;;;1.60;;
54871;SDS011;43914;57.680;11.982;2022-11-20T09:19:12;5.05;;;1.65;;
54871;SDS011;43914;57.680;11.982;2022-11-20T09:21:38;4.20;;;1.55;;
54871;SDS011;43914;57.680;11.982;2022-11-20T09:24:05;4.80;;;1.43;;
54871;SDS011;43914;57.680;11.982;2022-11-20T09:26:32;4.85;;;1.70;;
54871;SDS011;43914;57.680;11.982;2022-11-20T09:28:59;5.60;;;1.70;;
54871;SDS011;43914;57.680;11.982;2022-11-20T09:31:25;5.20;;;1.60;;
54871;SDS011;43914;57.680;11.982;2022-11-20T09:33:52;6.30;;;1.60;;
54871;SDS011;43914;57.680;11.982;2022-11-20T09:36:18;4.55;;;1.50;;
54871;SDS011;43914;57.680;11.982;2022-11-20T09:38:45;6.12;;;1.67;;
54871;SDS011;43914;57.680;11.982;2022-11-20T09:41:34;4.87;;;1.67;;
54871;SDS011;43914;57.680;11.982;2022-11-20T09:47:01;5.45;;;1.85;;
54871;SDS011;43914;57.680;11.982;2022-11-20T09:52:22;5.40;;;1.90;;
54871;SDS011;43914;57.680;11.982;2022-11-20T09:55:00;4.75;;;1.52;;
54871;SDS011;43914;57.680;11.982;2022-11-20T09:57:36;4.33;;;1.50;;
54871;SDS011;43914;57.680;11.982;2022-11-20T10:00:06;3.83;;;1.30;;
54871;SDS011;43914;57.680;11.982;2022-11-20T10:02:47;5.20;;;1.60;;
54871;SDS011;43914;57.680;11.982;2022-11-20T10:05:28;6.37;;;1.80;;
54871;SDS011;43914;57.680;11.982;2022-11-20T10:11:01;6.35;;;2.05;;
54871;SDS011;43914;57.680;11.982;2022-11-20T10:16:52;5.05;;;1.90;;
54871;SDS011;43914;57.680;11.982;2022-11-20T10:25:39;5.87;;;1.80;;
54871;SDS011;43914;57.680;11.982;2022-11-20T10:31:04;5.95;;;1.98;;
54871;SDS011;43914;57.680;11.982;2022-11-20T10:33:38;5.65;;;1.82;;
54871;SDS011;43914;57.680;11.982;2022-11-20T10:36:20;6.13;;;1.90;;
54871;SDS011;43914;57.680;11.982;2022-11-20T10:38:51;6.22;;;1.77;;
54871;SDS011;43914;57.680;11.982;2022-11-20T10:46:42;5.17;;;1.65;;
54871;SDS011;43914;57.680;11.982;2022-11-20T10:49:13;3.92;;;1.30;;
54871;SDS011;43914;57.680;11.982;2022-11-20T10:54:32;5.40;;;1.65;;
54871;SDS011;43914;57.680;11.982;2022-11-20T11:00:25;5.55;;;1.55;;
54871;SDS011;43914;57.680;11.982;2022-11-20T11:02:52;5.37;;;1.60;;
54871;SDS011;43914;57.680;11.982;2022-11-20T11:08:07;5.25;;;1.52;;
54871;SDS011;43914;57.680;11.982;2022-11-20T11:13:25;5.65;;;1.70;;
54871;SDS011;43914;57.680;11.982;2022-11-20T11:15:54;5.33;;;1.98;;
54871;SDS011;43914;57.680;11.982;2022-11-20T11:20:59;5.30;;;1.82;;
54871;SDS011;43914;57.680;11.982;2022-11-20T11:23:30;4.55;;;1.62;;
54871;SDS011;43914;57.680;11.982;2022-11-20T11:26:22;4.97;;;1.60;;
54871;SDS011;43914;57.680;11.982;2022-11-20T11:28:56;4.87;;;1.60;;
54871;SDS011;43914;57.680;11.982;2022-11-20T11:34:11;4.33;;;1.50;;
54871;SDS011;43914;57.680;11.982;2022-11-20T11:36:39;4.08;;;1.40;;
54871;SDS011;43914;57.680;11.982;2022-11-20T11:39:08;5.33;;;1.60;;
54871;SDS011;43914;57.680;11.982;2022-11-20T11:41:41;4.28;;;1.40;;
54871;SDS011;43914;57.680;11.982;2022-11-20T11:44:19;5.50;;;1.60;;
54871;SDS011;43914;57.680;11.982;2022-11-20T12:04:28;5.42;;;1.60;;
54871;SDS011;43914;57.680;11.982;2022-11-20T12:06:52;5.15;;;1.50;;
54871;SDS011;43914;57.680;11.982;2022-11-20T12:09:27;5.85;;;1.70;;
54871;SDS011;43914;57.680;11.982;2022-11-20T12:12:04;6.92;;;1.80;;
54871;SDS011;43914;57.680;11.982;2022-11-20T12:14:38;4.90;;;1.40;;
54871;SDS011;43914;57.680;11.982;2022-11-20T12:17:12;5.33;;;1.52;;
54871;SDS011;43914;57.680;11.982;2022-11-20T12:19:40;3.87;;;1.30;;
54871;SDS011;43914;57.680;11.982;2022-11-20T12:22:17;3.90;;;1.20;;
54871;SDS011;43914;57.680;11.982;2022-11-20T12:30:41;3.62;;;1.22;;
54871;SDS011;43914;57.680;11.982;2022-11-20T12:57:18;7.00;;;1.70;;
54871;SDS011;43914;57.680;11.982;2022-11-20T13:08:21;4.83;;;1.47;;
54871;SDS011;43914;57.680;11.982;2022-11-20T13:16:19;4.37;;;1.42;;
54871;SDS011;43914;57.680;11.982;2022-11-20T13:19:03;5.10;;;1.50;;
54871;SDS011;43914;57.680;11.982;2022-11-20T13:29:44;4.95;;;1.37;;
54871;SDS011;43914;57.680;11.982;2022-11-20T13:32:19;4.33;;;1.17;;
54871;SDS011;43914;57.680;11.982;2022-11-20T13:37:24;4.70;;;1.35;;
54871;SDS011;43914;57.680;11.982;2022-11-20T13:40:33;5.62;;;1.72;;
54871;SDS011;43914;57.680;11.982;2022-11-20T13:45:24;3.90;;;1.30;;
54871;SDS011;43914;57.680;11.982;2022-11-20T13:47:54;4.92;;;1.62;;
54871;SDS011;43914;57.680;11.982;2022-11-20T14:02:14;5.47;;;1.67;;
54871;SDS011;43914;57.680;11.982;2022-11-20T14:04:45;5.28;;;1.75;;
54871;SDS011;43914;57.680;11.982;2022-11-20T14:07:13;6.05;;;1.70;;
54871;SDS011;43914;57.680;11.982;2022-11-20T14:09:51;5.55;;;1.40;;
54871;SDS011;43914;57.680;11.982;2022-11-20T14:12:19;4.42;;;1.50;;
54871;SDS011;43914;57.680;11.982;2022-11-20T14:14:48;4.65;;;1.50;;
54871;SDS011;43914;57.680;11.982;2022-11-20T14:17:22;4.78;;;1.50;;
54871;SDS011;43914;57.680;11.982;2022-11-20T14:20:01;5.17;;;1.50;;
54871;SDS011;43914;57.680;11.982;2022-11-20T14:22:32;4.70;;;1.62;;
54871;SDS011;43914;57.680;11.982;2022-11-20T14:27:43;4.60;;;1.40;;
54871;SDS011;43914;57.680;11.982;2022-11-20T14:30:25;4.75;;;1.40;;
54871;SDS011;43914;57.680;11.982;2022-11-20T14:33:09;5.45;;;1.65;;
54871;SDS011;43914;57.680;11.982;2022-11-20T14:35:44;4.83;;;1.50;;
54871;SDS011;43914;57.680;11.982;2022-11-20T14:38:14;4.37;;;1.32;;
54871;SDS011;43914;57.680;11.982;2022-11-20T14:40:44;5.35;;;1.55;;
54871;SDS011;43914;57.680;11.982;2022-11-20T14:46:13;4.42;;;1.40;;
54871;SDS011;43914;57.680;11.982;2022-11-20T14:48:29;4.65;;;1.60;;
54871;SDS011;43914;57.680;11.982;2022-11-20T14:51:08;4.50;;;1.47;;
54871;SDS011;43914;57.680;11.982;2022-11-20T14:53:55;4.67;;;1.50;;
54871;SDS011;43914;57.680;11.982;2022-11-20T14:56:23;4.67;;;1.50;;
54871;SDS011;43914;57.680;11.982;2022-11-20T14:58:56;5.33;;;1.47;;
54871;SDS011;43914;57.680;11.982;2022-11-20T15:01:29;6.05;;;1.52;;
54871;SDS011;43914;57.680;11.982;2022-11-20T15:06:36;4.60;;;1.50;;
54871;SDS011;43914;57.680;11.982;2022-11-20T15:09:04;4.33;;;1.47;;
54871;SDS011;43914;57.680;11.982;2022-11-20T15:11:35;6.17;;;1.80;;
54871;SDS011;43914;57.680;11.982;2022-11-20T15:14:02;5.33;;;1.50;;
54871;SDS011;43914;57.680;11.982;2022-11-20T15:16:31;5.22;;;1.65;;
54871;SDS011;43914;57.680;11.982;2022-11-20T15:18:58;4.97;;;1.47;;
54871;SDS011;43914;57.680;11.982;2022-11-20T15:21:25;4.75;;;1.52;;
54871;SDS011;43914;57.680;11.982;2022-11-20T15:23:51;5.17;;;1.50;;
54871;SDS011;43914;57.680;11.982;2022-11-20T15:26:23;4.80;;;1.57;;
54871;SDS011;43914;57.680;11.982;2022-11-20T15:28:52;4.12;;;1.40;;
54871;SDS011;43914;57.680;11.982;2022-11-20T15:31:19;4.85;;;1.57;;
54871;SDS011;43914;57.680;11.982;2022-11-20T15:33:48;5.12;;;1.50;;
54871;SDS011;43914;57.680;11.982;2022-11-20T15:36:14;4.87;;;1.50;;
54871;SDS011;43914;57.680;11.982;2022-11-20T15:38:43;4.15;;;1.40;;
54871;SDS011;43914;57.680;11.982;2022-11-20T15:41:09;4.72;;;1.30;;
54871;SDS011;43914;57.680;11.982;2022-11-20T15:43:35;4.45;;;1.65;;
54871;SDS011;43914;57.680;11.982;2022-11-20T15:46:02;4.60;;;1.50;;
54871;SDS011;43914;57.680;11.982;2022-11-20T15:48:39;5.97;;;1.40;;
54871;SDS011;43914;57.680;11.982;2022-11-20T15:53:52;4.97;;;1.50;;
54871;SDS011;43914;57.680;11.982;2022-11-20T15:56:18;4.67;;;1.50;;
54871;SDS011;43914;57.680;11.982;2022-11-20T15:58:44;4.65;;;1.40;;
54871;SDS011;43914;57.680;11.982;2022-11-20T16:01:11;5.40;;;1.50;;
54871;SDS011;43914;57.680;11.982;2022-11-20T16:03:39;4.40;;;1.40;;
54871;SDS011;43914;57.680;11.982;2022-11-20T16:06:06;4.53;;;1.40;;
54871;SDS011;43914;57.680;11.982;2022-11-20T16:08:32;4.05;;;1.20;;
54871;SDS011;43914;57.680;11.982;2022-11-20T16:10:58;4.42;;;1.40;;
54871;SDS011;43914;57.680;11.982;2022-11-20T16:13:24;5.28;;;1.60;;
54871;SDS011;43914;57.680;11.982;2022-11-20T16:18:46;5.53;;;1.50;;
54871;SDS011;43914;57.680;11.982;2022-11-20T16:21:13;4.45;;;1.52;;
54871;SDS011;43914;57.680;11.982;2022-11-20T16:23:39;5.30;;;1.70;;
54871;SDS011;43914;57.680;11.982;2022-11-20T16:26:14;3.47;;;1.20;;
54871;SDS011;43914;57.680;11.982;2022-11-20T16:28:42;5.67;;;1.67;;
54871;SDS011;43914;57.680;11.982;2022-11-20T16:31:12;5.45;;;1.60;;
54871;SDS011;43914;57.680;11.982;2022-11-20T16:33:41;5.30;;;1.40;;
54871;SDS011;43914;57.680;11.982;2022-11-20T16:36:08;4.58;;;1.52;;
54871;SDS011;43914;57.680;11.982;2022-11-20T16:38:36;5.47;;;1.50;;
54871;SDS011;43914;57.680;11.982;2022-11-20T16:41:03;6.80;;;1.90;;
54871;SDS011;43914;57.680;11.982;2022-11-20T16:43:30;5.50;;;1.60;;
54871;SDS011;43914;57.680;11.982;2022-11-20T16:45:56;4.47;;;1.40;;
54871;SDS011;43914;57.680;11.982;2022-11-20T16:48:23;5.37;;;1.45;;
54871;SDS011;43914;57.680;11.982;2022-11-20T16:50:50;5.43;;;1.70;;
54871;SDS011;43914;57.680;11.982;2022-11-20T16:53:18;5.62;;;1.60;;
54871;SDS011;43914;57.680;11.982;2022-11-20T16:55:46;5.87;;;1.70;;
54871;SDS011;43914;57.680;11.982;2022-11-20T16:58:13;6.92;;;1.95;;
54871;SDS011;43914;57.680;11.982;2022-11-20T17:00:40;5.25;;;1.80;;
54871;SDS011;43914;57.680;11.982;2022-11-20T17:03:06;6.00;;;1.90;;
54871;SDS011;43914;57.680;11.982;2022-11-20T17:05:32;5.70;;;1.77;;
54871;SDS011;43914;57.680;11.982;2022-11-20T17:07:59;6.10;;;1.90;;
54871;SDS011;43914;57.680;11.982;2022-11-20T17:10:27;5.60;;;1.60;;
54871;SDS011;43914;57.680;11.982;2022-11-20T17:12:53;5.92;;;1.72;;
54871;SDS011;43914;57.680;11.982;2022-11-20T17:15:19;5.27;;;1.60;;
54871;SDS011;43914;57.680;11.982;2022-11-20T17:17:47;7.87;;;1.85;;
54871;SDS011;43914;57.680;11.982;2022-11-20T17:20:16;6.28;;;2.00;;
54871;SDS011;43914;57.680;11.982;2022-11-20T17:22:42;5.10;;;1.53;;
54871;SDS011;43914;57.680;11.982;2022-11-20T17:25:08;5.37;;;1.40;;
54871;SDS011;43914;57.680;11.982;2022-11-20T17:27:34;4.92;;;1.50;;
54871;SDS011;43914;57.680;11.982;2022-11-20T17:30:00;6.03;;;1.83;;
54871;SDS011;43914;57.680;11.982;2022-11-20T17:32:25;7.17;;;1.60;;